Time;durP1;ratioP1;P1;durP2;ratioP2;P2;SDS_P1;SDS_P2;PMS_P1;PMS_P2;Temp;Humidity;BMP_temperature;BMP_pressure;BME280_temperature;BME280_humidity;BME280_pressure;Samples;Min_cycle;Max_cycle;Signal;HPM_P1;HPM_P2
2022/10/25 00:01:41;;;;;;;;;;;22.60;99.90;;;;;;5044528;28;19923;-78
2022/10/25 00:04:07;;;;;;;;;;;22.60;99.90;;;;;;5033229;28;19909;-79
2022/10/25 00:06:34;;;;;;;;;;;22.60;99.90;;;;;;5033962;28;19921;-78
2022/10/25 00:09:01;;;;;;;;;;;22.60;99.90;;;;;;5037047;28;19913;-78
2022/10/25 00:11:28;;;;;;;;;;;22.70;99.90;;;;;;5051447;28;19943;-78
2022/10/25 00:13:56;;;;;;;;;;;22.80;99.90;;;;;;5044348;28;19916;-77
2022/10/25 00:16:24;;;;;;;;;;;23.00;99.90;;;;;;5037277;28;19913;-78
2022/10/25 00:18:51;;;;;;;;;;;23.30;99.90;;;;;;5051860;28;20334;-78
2022/10/25 00:21:18;;;;;;;;;;;23.60;99.90;;;;;;5052252;28;20244;-77
2022/10/25 00:23:45;;;;;;;;;;;23.90;99.90;;;;;;5033866;28;20434;-77
2022/10/25 00:26:12;;;;;;;;;;;24.20;99.90;;;;;;5032799;28;20663;-77
2022/10/25 00:28:39;;;;;;;;;;;24.40;99.90;;;;;;5049655;28;20007;-77
2022/10/25 00:31:07;;;;;;;;;;;24.50;99.90;;;;;;5052885;28;19909;-78
2022/10/25 00:33:34;;;;;;;;;;;24.70;99.90;;;;;;5042055;28;19952;-77
2022/10/25 00:36:05;;;;;;;;;;;24.70;99.90;;;;;;5032695;28;19917;-77
2022/10/25 00:38:31;;;;;;;;;;;24.70;99.90;;;;;;5034820;28;19913;-80
2022/10/25 00:40:58;;;;;;;;;;;24.70;99.90;;;;;;5044770;28;19913;-79
2022/10/25 00:43:31;;;;;;;;;;;24.70;99.90;;;;;;5051033;28;19916;-75
2022/10/25 00:45:58;;;;;;;;;;;24.90;99.90;;;;;;5052330;28;19916;-78
2022/10/25 00:48:25;;;;;;;;;;;25.00;99.90;;;;;;5036117;28;19998;-76
2022/10/25 00:50:53;;;;;;;;;;;25.20;99.90;;;;;;5032913;28;19913;-77
2022/10/25 00:53:21;;;;;;;;;;;25.40;99.90;;;;;;5033440;28;20052;-78
2022/10/25 00:55:50;;;;;;;;;;;25.70;99.90;;;;;;5032345;28;19988;-78
2022/10/25 00:58:19;;;;;;;;;;;25.90;99.90;;;;;;5033240;28;20221;-76
2022/10/25 01:00:47;;;;;;;;;;;25.90;99.90;;;;;;5034965;28;20382;-73
2022/10/25 01:03:16;;;;;;;;;;;25.60;99.90;;;;;;5037181;28;19913;-77
2022/10/25 01:05:43;;;;;;;;;;;25.40;99.90;;;;;;5048350;28;19927;-78
2022/10/25 01:08:10;;;;;;;;;;;25.00;99.90;;;;;;5033034;28;19917;-77
2022/10/25 01:10:37;;;;;;;;;;;24.90;99.90;;;;;;5048101;28;20466;-77
2022/10/25 01:13:04;;;;;;;;;;;24.90;99.90;;;;;;5038821;28;19932;-78
2022/10/25 01:15:34;;;;;;;;;;;24.90;99.90;;;;;;5032506;28;19920;-78
2022/10/25 01:18:14;;;;;;;;;;;24.80;99.90;;;;;;5035947;28;20380;-79
2022/10/25 01:20:58;;;;;;;;;;;24.70;99.90;;;;;;5033294;28;19913;-79
2022/10/25 01:23:31;;;;;;;;;;;24.70;99.90;;;;;;5035857;28;20467;-76
2022/10/25 01:26:06;;;;;;;;;;;24.80;99.90;;;;;;5031838;28;20335;-78
2022/10/25 01:28:33;;;;;;;;;;;24.90;99.90;;;;;;5034446;28;19928;-78
2022/10/25 01:31:17;;;;;;;;;;;24.90;99.90;;;;;;5032316;28;19909;-77
2022/10/25 01:34:05;;;;;;;;;;;24.90;99.90;;;;;;5040029;28;19913;-78
2022/10/25 01:36:50;;;;;;;;;;;24.80;99.90;;;;;;5046208;28;19982;-78
2022/10/25 01:39:24;;;;;;;;;;;24.90;99.90;;;;;;5032293;28;20390;-79
2022/10/25 01:42:02;;;;;;;;;;;24.90;99.90;;;;;;5032764;28;20287;-78
2022/10/25 01:44:29;;;;;;;;;;;24.80;99.90;;;;;;5032314;28;19970;-77
2022/10/25 01:47:04;;;;;;;;;;;24.80;99.90;;;;;;5032699;28;19962;-76
2022/10/25 01:49:40;;;;;;;;;;;25.00;99.90;;;;;;5032131;28;19936;-78
2022/10/25 01:52:07;;;;;;;;;;;25.20;99.90;;;;;;5036772;28;20335;-78
2022/10/25 01:54:34;;;;;;;;;;;25.60;99.90;;;;;;5051889;28;19967;-78
2022/10/25 01:57:23;;;;;;;;;;;26.30;99.90;;;;;;5044937;28;19913;-79
2022/10/25 02:00:08;;;;;;;;;;;27.00;99.90;;;;;;5043080;28;19986;-77
2022/10/25 02:02:46;;;;;;;;;;;27.40;99.90;;;;;;5042428;28;19909;-78
2022/10/25 02:05:16;;;;;;;;;;;27.30;99.90;;;;;;5038761;28;19920;-81
2022/10/25 02:07:50;;;;;;;;;;;27.20;99.90;;;;;;5041057;28;20016;-78
2022/10/25 02:10:23;;;;;;;;;;;27.20;99.90;;;;;;5045475;28;20275;-79
2022/10/25 02:12:50;;;;;;;;;;;27.40;99.90;;;;;;5038966;28;20007;-79
2022/10/25 02:15:27;;;;;;;;;;;27.20;99.90;;;;;;5031988;28;20007;-78
2022/10/25 02:17:56;;;;;;;;;;;26.90;99.90;;;;;;5036031;28;19971;-78
2022/10/25 02:20:24;;;;;;;;;;;26.60;99.90;;;;;;5035513;28;19913;-77
2022/10/25 02:22:53;;;;;;;;;;;26.50;99.90;;;;;;5036143;28;20493;-76
2022/10/25 02:25:20;;;;;;;;;;;26.60;99.90;;;;;;5045629;28;19924;-77
2022/10/25 02:27:47;;;;;;;;;;;26.60;99.90;;;;;;5050389;28;19979;-77
2022/10/25 02:30:14;;;;;;;;;;;26.60;99.90;;;;;;5055547;28;19932;-79
2022/10/25 02:32:40;;;;;;;;;;;26.60;99.90;;;;;;5053259;28;19913;-76
2022/10/25 02:35:11;;;;;;;;;;;26.80;99.90;;;;;;5035644;28;20358;-76
2022/10/25 02:37:37;;;;;;;;;;;26.90;99.90;;;;;;5035961;28;19917;-79
2022/10/25 02:40:04;;;;;;;;;;;26.90;99.90;;;;;;5048324;28;20434;-78
2022/10/25 02:42:31;;;;;;;;;;;27.30;99.90;;;;;;5038192;28;19913;-77
2022/10/25 02:44:58;;;;;;;;;;;28.00;99.90;;;;;;5054640;28;19956;-78
2022/10/25 02:47:24;;;;;;;;;;;28.50;99.60;;;;;;5046656;28;19921;-78
2022/10/25 02:49:51;;;;;;;;;;;28.90;98.70;;;;;;5034813;28;19913;-77
2022/10/25 02:52:17;;;;;;;;;;;29.20;98.60;;;;;;5044617;28;19913;-78
2022/10/25 02:54:44;;;;;;;;;;;29.40;97.80;;;;;;5039934;28;20375;-79
2022/10/25 02:57:11;;;;;;;;;;;29.50;98.20;;;;;;5035950;28;19996;-78
2022/10/25 02:59:37;;;;;;;;;;;29.60;97.90;;;;;;5034905;28;20252;-78
2022/10/25 03:02:04;;;;;;;;;;;29.50;97.30;;;;;;5048831;28;19917;-79
2022/10/25 03:04:31;;;;;;;;;;;29.50;96.90;;;;;;5034884;28;19988;-78
2022/10/25 03:06:57;;;;;;;;;;;29.60;97.20;;;;;;5035350;28;19968;-79
2022/10/25 03:09:24;;;;;;;;;;;29.60;96.40;;;;;;5034927;28;20423;-77
2022/10/25 03:11:51;;;;;;;;;;;29.80;96.40;;;;;;5049086;28;19999;-78
2022/10/25 03:14:17;;;;;;;;;;;30.10;97.20;;;;;;5054556;28;19916;-77
2022/10/25 03:16:44;;;;;;;;;;;30.20;96.20;;;;;;5051029;28;19928;-78
2022/10/25 03:19:11;;;;;;;;;;;30.10;96.60;;;;;;5054591;28;19974;-78
2022/10/25 03:21:37;;;;;;;;;;;30.10;96.90;;;;;;5052493;28;19928;-79
2022/10/25 03:24:04;;;;;;;;;;;30.30;96.50;;;;;;5053314;28;19912;-78
2022/10/25 03:26:31;;;;;;;;;;;30.60;96.20;;;;;;5052066;28;19943;-78
2022/10/25 03:28:58;;;;;;;;;;;30.50;95.90;;;;;;5041414;28;20267;-78
2022/10/25 03:31:24;;;;;;;;;;;30.20;96.30;;;;;;5053259;28;19908;-78
2022/10/25 03:33:51;;;;;;;;;;;30.20;96.20;;;;;;5053775;28;20007;-78
2022/10/25 03:36:18;;;;;;;;;;;30.20;96.10;;;;;;5054118;28;19915;-77
2022/10/25 03:38:44;;;;;;;;;;;30.40;96.10;;;;;;5053007;28;19948;-80
2022/10/25 03:41:11;;;;;;;;;;;30.20;96.30;;;;;;5052928;28;19917;-79
2022/10/25 03:43:38;;;;;;;;;;;29.90;95.90;;;;;;5053854;28;20279;-78
2022/10/25 03:46:04;;;;;;;;;;;29.80;96.10;;;;;;5052665;28;19920;-80
2022/10/25 03:48:31;;;;;;;;;;;29.90;96.00;;;;;;5036496;28;19917;-76
2022/10/25 03:50:58;;;;;;;;;;;30.10;95.90;;;;;;5036614;28;19913;-80
2022/10/25 03:53:24;;;;;;;;;;;30.20;95.20;;;;;;5037301;28;20401;-81
2022/10/25 03:55:51;;;;;;;;;;;30.40;95.70;;;;;;5033448;28;19909;-80
2022/10/25 03:58:18;;;;;;;;;;;30.60;95.10;;;;;;5048113;28;19920;-79
2022/10/25 04:00:45;;;;;;;;;;;30.60;94.50;;;;;;5033976;28;20015;-78
2022/10/25 04:03:11;;;;;;;;;;;30.70;93.60;;;;;;5034105;28;19913;-79
2022/10/25 04:05:38;;;;;;;;;;;30.50;94.00;;;;;;5033607;28;19909;-81
2022/10/25 04:08:05;;;;;;;;;;;30.20;94.30;;;;;;5038818;28;19972;-80
2022/10/25 04:10:31;;;;;;;;;;;29.70;94.90;;;;;;5052748;28;19909;-79
2022/10/25 04:12:58;;;;;;;;;;;29.20;94.80;;;;;;5034198;28;20012;-81
2022/10/25 04:15:25;;;;;;;;;;;28.70;95.30;;;;;;5033267;28;19916;-79
2022/10/25 04:17:52;;;;;;;;;;;28.30;96.10;;;;;;5035294;28;20326;-78
2022/10/25 04:20:19;;;;;;;;;;;28.00;96.40;;;;;;5033365;28;19917;-80
2022/10/25 04:22:51;;;;;;;;;;;27.70;96.30;;;;;;5034091;28;20015;-79
2022/10/25 04:25:18;;;;;;;;;;;27.50;96.60;;;;;;5038630;28;19925;-76
2022/10/25 04:27:45;;;;;;;;;;;27.30;97.60;;;;;;5041913;28;20349;-79
2022/10/25 04:30:11;;;;;;;;;;;26.90;97.30;;;;;;5051581;28;19913;-78
2022/10/25 04:32:38;;;;;;;;;;;23.70;99.90;;;;;;5043066;28;20326;-82
2022/10/25 04:35:05;;;;;;;;;;;20.50;99.90;;;;;;5032948;28;20414;-76
2022/10/25 04:37:32;;;;;;;;;;;19.00;99.90;;;;;;5037396;28;19920;-78
2022/10/25 04:39:58;;;;;;;;;;;18.30;99.90;;;;;;5032130;28;19921;-77
2022/10/25 04:42:25;;;;;;;;;;;17.90;99.90;;;;;;5050916;28;19966;-78
2022/10/25 04:44:51;;;;;;;;;;;17.80;99.90;;;;;;5052014;28;19913;-77
2022/10/25 04:47:18;;;;;;;;;;;18.00;99.90;;;;;;5045336;28;19968;-77
2022/10/25 04:49:45;;;;;;;;;;;18.10;99.90;;;;;;5041981;28;19920;-76
2022/10/25 04:52:11;;;;;;;;;;;18.30;99.90;;;;;;5043650;28;19920;-75
2022/10/25 04:54:38;;;;;;;;;;;18.50;99.90;;;;;;5032798;28;19910;-76
2022/10/25 04:57:06;;;;;;;;;;;18.80;99.90;;;;;;5033362;28;20031;-76
2022/10/25 04:59:32;;;;;;;;;;;18.90;99.90;;;;;;5040462;28;19909;-76
2022/10/25 05:01:59;;;;;;;;;;;19.20;99.90;;;;;;5051027;28;20446;-75
2022/10/25 05:04:26;;;;;;;;;;;19.40;99.90;;;;;;5051659;28;19939;-75
2022/10/25 05:06:52;;;;;;;;;;;19.40;99.90;;;;;;5048729;28;19960;-76
2022/10/25 05:09:19;;;;;;;;;;;19.40;99.90;;;;;;5032426;28;19909;-75
2022/10/25 05:11:46;;;;;;;;;;;19.60;99.90;;;;;;5033092;28;19960;-75
2022/10/25 05:14:13;;;;;;;;;;;19.70;99.90;;;;;;5032458;28;19910;-75
2022/10/25 05:16:40;;;;;;;;;;;19.90;99.90;;;;;;5039086;28;19917;-74
2022/10/25 05:19:06;;;;;;;;;;;20.10;99.90;;;;;;5037652;28;20020;-74
2022/10/25 05:21:34;;;;;;;;;;;20.30;99.90;;;;;;5050542;28;19975;-75
2022/10/25 05:24:00;;;;;;;;;;;20.40;99.90;;;;;;5031976;28;19914;-70
2022/10/25 05:26:27;;;;;;;;;;;20.60;99.90;;;;;;5038142;28;19925;-72
2022/10/25 05:28:55;;;;;;;;;;;20.80;99.90;;;;;;5032861;28;19913;-74
2022/10/25 05:31:26;;;;;;;;;;;21.10;99.90;;;;;;5031765;28;19935;-73
2022/10/25 05:33:54;;;;;;;;;;;21.50;99.90;;;;;;5051041;28;20011;-73
2022/10/25 05:36:21;;;;;;;;;;;21.90;99.90;;;;;;5051171;28;19917;-73
2022/10/25 05:38:48;;;;;;;;;;;22.40;99.90;;;;;;5037839;28;19917;-74
2022/10/25 05:41:15;;;;;;;;;;;22.80;99.90;;;;;;5032383;28;20364;-75
2022/10/25 05:43:42;;;;;;;;;;;23.20;99.90;;;;;;5032997;28;20355;-75
2022/10/25 05:46:27;;;;;;;;;;;23.40;99.90;;;;;;5031753;28;19939;-75
2022/10/25 05:48:54;;;;;;;;;;;23.60;99.90;;;;;;5051555;28;19920;-74
2022/10/25 05:51:28;;;;;;;;;;;23.80;99.90;;;;;;5051311;28;19912;-73
2022/10/25 05:53:56;;;;;;;;;;;23.90;99.90;;;;;;5042915;28;19912;-75
2022/10/25 05:56:23;;;;;;;;;;;23.90;99.90;;;;;;5055305;28;20375;-74
2022/10/25 05:58:51;;;;;;;;;;;24.10;99.90;;;;;;5042488;28;20363;-74
2022/10/25 06:01:21;;;;;;;;;;;24.10;99.90;;;;;;5055704;28;19962;-74
2022/10/25 06:03:48;;;;;;;;;;;24.30;99.90;;;;;;5036505;28;20253;-75
2022/10/25 06:06:15;;;;;;;;;;;24.30;99.90;;;;;;5036109;28;20281;-75
2022/10/25 06:08:41;;;;;;;;;;;24.30;99.90;;;;;;5053636;28;19954;-73
2022/10/25 06:11:09;;;;;;;;;;;24.30;99.90;;;;;;5054799;28;20367;-73
2022/10/25 06:13:37;;;;;;;;;;;24.20;99.90;;;;;;5037556;28;20006;-72
2022/10/25 06:16:04;;;;;;;;;;;24.00;99.90;;;;;;5035301;28;19947;-74
2022/10/25 06:18:31;;;;;;;;;;;23.90;99.90;;;;;;5036422;28;19909;-73
2022/10/25 06:21:02;;;;;;;;;;;23.80;99.90;;;;;;5035516;28;20004;-73
2022/10/25 06:23:30;;;;;;;;;;;23.70;99.90;;;;;;5036433;28;19932;-75
2022/10/25 06:26:00;;;;;;;;;;;23.70;99.90;;;;;;5053279;28;19920;-74
2022/10/25 06:28:27;;;;;;;;;;;23.60;99.90;;;;;;5054247;28;19969;-75
2022/10/25 06:30:54;;;;;;;;;;;23.50;99.90;;;;;;5055427;28;19979;-74
2022/10/25 06:33:21;;;;;;;;;;;23.50;99.90;;;;;;5047790;28;19917;-73
2022/10/25 06:35:47;;;;;;;;;;;23.60;99.90;;;;;;5035200;28;19909;-74
2022/10/25 06:38:14;;;;;;;;;;;23.60;99.90;;;;;;5035948;28;19914;-74
2022/10/25 06:40:42;;;;;;;;;;;23.60;99.90;;;;;;5038919;28;20007;-74
2022/10/25 06:43:08;;;;;;;;;;;23.70;99.90;;;;;;5040526;28;20429;-74
2022/10/25 06:45:35;;;;;;;;;;;23.70;99.90;;;;;;5035070;28;19913;-73
2022/10/25 06:48:02;;;;;;;;;;;23.80;99.90;;;;;;5035430;28;20345;-74
2022/10/25 06:50:28;;;;;;;;;;;23.80;99.90;;;;;;5035146;28;20271;-75
2022/10/25 06:52:57;;;;;;;;;;;23.80;99.90;;;;;;5048146;28;19917;-73
2022/10/25 06:55:23;;;;;;;;;;;23.80;99.90;;;;;;5035126;28;20402;-73
2022/10/25 06:57:50;;;;;;;;;;;23.70;99.90;;;;;;5039028;28;19919;-75
2022/10/25 07:00:17;;;;;;;;;;;23.50;99.90;;;;;;5054822;28;19967;-76
2022/10/25 07:02:43;;;;;;;;;;;23.30;99.90;;;;;;5043754;28;19913;-76
2022/10/25 07:05:10;;;;;;;;;;;23.20;99.90;;;;;;5034828;28;20318;-75
2022/10/25 07:07:36;;;;;;;;;;;23.10;99.90;;;;;;5035446;28;20291;-75
2022/10/25 07:10:03;;;;;;;;;;;22.90;99.90;;;;;;5034265;28;19913;-77
2022/10/25 07:12:36;;;;;;;;;;;22.80;99.90;;;;;;5044493;28;20444;-74
2022/10/25 07:15:03;;;;;;;;;;;22.70;99.90;;;;;;5037939;28;19940;-74
2022/10/25 07:17:30;;;;;;;;;;;22.70;99.90;;;;;;5044154;28;19944;-75
2022/10/25 07:19:57;;;;;;;;;;;22.60;99.90;;;;;;5034200;28;19916;-73
2022/10/25 07:22:24;;;;;;;;;;;22.50;99.90;;;;;;5041091;28;19924;-74
2022/10/25 07:24:50;;;;;;;;;;;22.40;99.90;;;;;;5053850;28;20352;-73
2022/10/25 07:27:17;;;;;;;;;;;22.40;99.90;;;;;;5046824;28;19927;-73
2022/10/25 07:29:44;;;;;;;;;;;22.30;99.90;;;;;;5034169;28;19920;-75
2022/10/25 07:32:11;;;;;;;;;;;22.20;99.90;;;;;;5050991;28;19920;-75
2022/10/25 07:34:37;;;;;;;;;;;22.20;99.90;;;;;;5053996;28;19916;-73
2022/10/25 07:37:05;;;;;;;;;;;22.10;99.90;;;;;;5048508;28;19923;-75
2022/10/25 07:39:32;;;;;;;;;;;22.10;99.90;;;;;;5034089;28;20356;-75
2022/10/25 07:41:59;;;;;;;;;;;22.10;99.90;;;;;;5042327;28;20344;-74
2022/10/25 07:44:25;;;;;;;;;;;22.10;99.90;;;;;;5051305;28;19928;-75
2022/10/25 07:46:54;;;;;;;;;;;22.10;99.90;;;;;;5049866;28;19925;-75
2022/10/25 07:49:20;;;;;;;;;;;22.10;99.90;;;;;;5039581;28;19909;-75
2022/10/25 07:51:47;;;;;;;;;;;22.10;99.90;;;;;;5050422;28;19939;-74
2022/10/25 07:54:14;;;;;;;;;;;22.10;99.90;;;;;;5033924;28;20435;-74
2022/10/25 07:56:40;;;;;;;;;;;22.10;99.90;;;;;;5043614;28;19920;-75
2022/10/25 07:59:07;;;;;;;;;;;22.10;99.90;;;;;;5039003;28;19913;-75
2022/10/25 08:01:35;;;;;;;;;;;22.10;99.90;;;;;;5050248;28;19917;-75
2022/10/25 08:04:02;;;;;;;;;;;22.10;99.90;;;;;;5033319;28;19951;-73
2022/10/25 08:06:28;;;;;;;;;;;22.00;99.90;;;;;;5039795;28;19920;-74
2022/10/25 08:08:55;;;;;;;;;;;21.90;99.90;;;;;;5033675;28;19949;-74
2022/10/25 08:11:21;;;;;;;;;;;21.90;99.90;;;;;;5039492;28;19917;-74
2022/10/25 08:13:49;;;;;;;;;;;21.80;99.90;;;;;;5035285;28;19921;-73
2022/10/25 08:16:16;;;;;;;;;;;21.80;99.90;;;;;;5052168;28;20367;-73
2022/10/25 08:18:43;;;;;;;;;;;21.70;99.90;;;;;;5034316;28;19913;-74
2022/10/25 08:21:09;;;;;;;;;;;21.70;99.90;;;;;;5033206;28;20348;-75
2022/10/25 08:23:36;;;;;;;;;;;21.60;99.90;;;;;;5042099;28;19920;-75
2022/10/25 08:26:03;;;;;;;;;;;21.50;99.90;;;;;;5052595;28;19927;-77
2022/10/25 08:28:30;;;;;;;;;;;21.40;99.90;;;;;;5035976;28;19921;-74
2022/10/25 08:30:56;;;;;;;;;;;21.30;99.90;;;;;;5032788;28;20011;-74
2022/10/25 08:33:23;;;;;;;;;;;21.20;99.90;;;;;;5046776;28;19913;-74
2022/10/25 08:35:50;;;;;;;;;;;21.10;99.90;;;;;;5032719;28;19909;-75
2022/10/25 08:38:17;;;;;;;;;;;21.00;99.90;;;;;;5033583;28;20384;-74
2022/10/25 08:40:44;;;;;;;;;;;20.90;99.90;;;;;;5042059;28;19908;-75
2022/10/25 08:43:23;;;;;;;;;;;20.90;99.90;;;;;;5038668;28;20011;-74
2022/10/25 08:45:57;;;;;;;;;;;20.80;99.90;;;;;;5032475;28;19963;-76
2022/10/25 08:48:29;;;;;;;;;;;20.70;99.90;;;;;;5033836;28;19928;-75
2022/10/25 08:50:58;;;;;;;;;;;20.60;99.90;;;;;;5032927;28;19919;-76
2022/10/25 08:53:31;;;;;;;;;;;20.50;99.90;;;;;;5033662;28;19917;-75
2022/10/25 08:55:59;;;;;;;;;;;20.50;99.90;;;;;;5032803;28;20173;-74
2022/10/25 08:58:35;;;;;;;;;;;20.40;99.90;;;;;;5048542;28;20342;-77
2022/10/25 09:01:07;;;;;;;;;;;20.30;99.90;;;;;;5052555;28;20387;-74
2022/10/25 09:03:34;;;;;;;;;;;20.30;99.90;;;;;;5049221;28;19947;-76
2022/10/25 09:06:12;;;;;;;;;;;20.20;99.90;;;;;;5031852;28;19963;-76
2022/10/25 09:08:41;;;;;;;;;;;20.20;99.90;;;;;;5032485;28;19925;-74
2022/10/25 09:11:20;;;;;;;;;;;20.10;99.90;;;;;;5032029;28;19959;-74
2022/10/25 09:13:50;;;;;;;;;;;20.10;99.90;;;;;;5034864;28;19913;-76
2022/10/25 09:16:18;;;;;;;;;;;20.10;99.90;;;;;;5049859;28;20256;-73
2022/10/25 09:18:53;;;;;;;;;;;20.00;99.90;;;;;;5043612;28;20611;-76
2022/10/25 09:21:28;;;;;;;;;;;19.90;99.90;;;;;;5041831;28;20368;-75
2022/10/25 09:24:00;;;;;;;;;;;19.90;99.90;;;;;;5035937;28;19921;-75
2022/10/25 09:26:53;;;;;;;;;;;19.80;99.90;;;;;;5036860;28;20007;-73
2022/10/25 09:29:29;;;;;;;;;;;19.80;99.90;;;;;;5026765;28;20267;-75
2022/10/25 09:31:57;;;;;;;;;;;19.70;99.90;;;;;;5050569;28;19917;-73
2022/10/25 09:34:27;;;;;;;;;;;19.70;99.90;;;;;;5034886;28;19913;-74
2022/10/25 09:36:57;;;;;;;;;;;19.60;99.90;;;;;;5045963;28;19913;-74
2022/10/25 09:39:35;;;;;;;;;;;19.60;99.90;;;;;;5047095;28;19915;-74
2022/10/25 09:42:02;;;;;;;;;;;19.60;99.90;;;;;;5032114;28;19913;-73
2022/10/25 09:44:50;;;;;;;;;;;19.50;99.90;;;;;;5031296;28;19967;-74
2022/10/25 09:47:37;;;;;;;;;;;19.50;99.90;;;;;;5032237;28;20330;-73
2022/10/25 09:50:06;;;;;;;;;;;19.50;99.90;;;;;;5049758;28;20363;-75
2022/10/25 09:52:33;;;;;;;;;;;19.50;99.90;;;;;;5042098;28;19995;-75
2022/10/25 09:55:17;;;;;;;;;;;19.50;99.90;;;;;;5043249;28;19912;-75
2022/10/25 09:57:45;;;;;;;;;;;19.50;99.90;;;;;;5036489;28;20486;-76
2022/10/25 10:00:12;;;;;;;;;;;19.60;99.90;;;;;;5043357;28;19917;-75
2022/10/25 10:02:40;;;;;;;;;;;19.60;99.90;;;;;;5045995;28;19997;-76
2022/10/25 10:05:16;;;;;;;;;;;19.70;99.90;;;;;;5042283;28;20426;-77
2022/10/25 10:07:44;;;;;;;;;;;19.70;99.90;;;;;;5040412;28;20291;-76
2022/10/25 10:10:16;;;;;;;;;;;19.70;99.90;;;;;;5031371;28;19959;-76
2022/10/25 10:12:46;;;;;;;;;;;19.80;99.90;;;;;;5038635;28;19913;-74
2022/10/25 10:15:34;;;;;;;;;;;19.80;99.90;;;;;;5031311;28;20006;-75
2022/10/25 10:18:21;;;;;;;;;;;19.80;99.90;;;;;;5032078;28;19917;-74
2022/10/25 10:20:58;;;;;;;;;;;19.80;99.90;;;;;;5031026;28;19970;-76
2022/10/25 10:23:29;;;;;;;;;;;19.80;99.90;;;;;;5046094;28;20387;-73
2022/10/25 10:25:55;;;;;;;;;;;19.80;99.90;;;;;;5044428;28;19936;-74
2022/10/25 10:28:22;;;;;;;;;;;19.80;99.90;;;;;;5045714;28;19925;-75
2022/10/25 10:30:53;;;;;;;;;;;19.80;99.90;;;;;;5034099;28;20378;-74
2022/10/25 10:33:20;;;;;;;;;;;19.80;99.90;;;;;;5043947;28;19924;-74
2022/10/25 10:35:46;;;;;;;;;;;19.80;99.90;;;;;;5050953;28;20042;-73
2022/10/25 10:38:17;;;;;;;;;;;19.80;99.90;;;;;;5049275;28;19913;-76
2022/10/25 10:40:44;;;;;;;;;;;19.80;99.90;;;;;;5051784;28;19917;-75
2022/10/25 10:43:30;;;;;;;;;;;19.80;99.90;;;;;;5040021;28;19967;-75
2022/10/25 10:46:01;;;;;;;;;;;19.80;99.90;;;;;;5034236;28;19913;-76
2022/10/25 10:48:32;;;;;;;;;;;19.80;99.90;;;;;;5035072;28;20290;-73
2022/10/25 10:50:58;;;;;;;;;;;19.80;99.90;;;;;;5034063;28;19917;-72
2022/10/25 10:53:31;;;;;;;;;;;19.80;99.90;;;;;;5052428;28;19921;-74
2022/10/25 10:56:02;;;;;;;;;;;19.80;99.90;;;;;;5042306;28;20004;-76
2022/10/25 10:58:39;;;;;;;;;;;19.90;99.90;;;;;;5035891;28;19916;-74
2022/10/25 11:01:14;;;;;;;;;;;19.90;99.90;;;;;;5034332;28;19913;-74
2022/10/25 11:03:40;;;;;;;;;;;19.90;99.90;;;;;;5035093;28;20334;-75
2022/10/25 11:06:07;;;;;;;;;;;19.90;99.90;;;;;;5033947;28;19917;-73
2022/10/25 11:08:34;;;;;;;;;;;19.80;99.90;;;;;;5034840;28;19996;-74
2022/10/25 11:11:19;;;;;;;;;;;19.80;99.90;;;;;;5038724;28;19959;-73
2022/10/25 11:13:52;;;;;;;;;;;19.80;99.90;;;;;;5052866;28;19921;-71
2022/10/25 11:16:37;;;;;;;;;;;19.70;99.90;;;;;;5053135;28;20353;-73
2022/10/25 11:19:22;;;;;;;;;;;19.70;99.90;;;;;;5048578;28;20323;-75
2022/10/25 11:22:06;;;;;;;;;;;19.60;99.90;;;;;;5040006;28;19909;-75
2022/10/25 11:24:43;;;;;;;;;;;19.60;99.90;;;;;;5033493;28;20471;-75
2022/10/25 11:27:15;;;;;;;;;;;19.60;99.90;;;;;;5045491;28;20364;-74
2022/10/25 11:30:01;;;;;;;;;;;19.60;99.90;;;;;;5045555;28;19916;-75
2022/10/25 11:32:31;;;;;;;;;;;19.60;99.90;;;;;;5033005;28;20376;-76
2022/10/25 11:35:00;;;;;;;;;;;19.50;99.90;;;;;;5033260;28;19913;-74
2022/10/25 11:37:41;;;;;;;;;;;19.50;99.90;;;;;;5035257;28;19913;-76
2022/10/25 11:40:18;;;;;;;;;;;19.50;99.90;;;;;;5045134;28;20413;-74
2022/10/25 11:42:58;;;;;;;;;;;19.50;99.90;;;;;;5041968;28;19917;-73
2022/10/25 11:45:40;;;;;;;;;;;19.50;99.90;;;;;;5044742;28;19913;-73
2022/10/25 11:48:07;;;;;;;;;;;19.50;99.90;;;;;;5050166;28;19975;-73
2022/10/25 11:50:45;;;;;;;;;;;19.50;99.90;;;;;;5053452;28;19919;-75
2022/10/25 11:53:16;;;;;;;;;;;19.50;99.90;;;;;;5038640;28;19913;-74
2022/10/25 11:56:01;;;;;;;;;;;19.60;99.90;;;;;;5033469;28;19932;-75
2022/10/25 11:58:37;;;;;;;;;;;19.50;99.90;;;;;;5033994;28;19920;-74
2022/10/25 12:01:06;;;;;;;;;;;19.40;99.90;;;;;;5041117;28;20381;-75
2022/10/25 12:03:51;;;;;;;;;;;19.40;99.90;;;;;;5035463;28;19957;-75
2022/10/25 12:06:40;;;;;;;;;;;19.40;99.90;;;;;;5032986;28;19909;-75
2022/10/25 12:09:07;;;;;;;;;;;19.40;99.90;;;;;;5032555;28;19913;-73
2022/10/25 12:11:39;;;;;;;;;;;19.40;99.90;;;;;;5041574;28;20378;-75
2022/10/25 12:14:11;;;;;;;;;;;19.40;99.90;;;;;;5032665;28;19913;-75
2022/10/25 12:16:37;;;;;;;;;;;19.40;99.90;;;;;;5034460;28;19921;-74
2022/10/25 12:19:04;;;;;;;;;;;19.40;99.90;;;;;;5032900;28;19940;-75
2022/10/25 12:21:37;;;;;;;;;;;19.30;99.90;;;;;;5039373;28;19958;-74
2022/10/25 12:24:06;;;;;;;;;;;19.30;99.90;;;;;;5032487;28;19909;-75
2022/10/25 12:26:34;;;;;;;;;;;19.30;99.90;;;;;;5039010;28;19920;-75
2022/10/25 12:29:05;;;;;;;;;;;19.30;99.90;;;;;;5033033;28;20011;-75
2022/10/25 12:31:40;;;;;;;;;;;19.30;99.90;;;;;;5033429;28;19916;-74
2022/10/25 12:34:12;;;;;;;;;;;19.30;99.90;;;;;;5048740;28;19921;-75
2022/10/25 12:36:53;;;;;;;;;;;19.30;99.90;;;;;;5050482;28;19991;-75
2022/10/25 12:39:25;;;;;;;;;;;19.30;99.90;;;;;;5046906;28;20363;-75
2022/10/25 12:41:57;;;;;;;;;;;19.20;99.90;;;;;;5048630;28;20384;-74
2022/10/25 12:44:27;;;;;;;;;;;19.20;99.90;;;;;;5032319;28;19948;-73
2022/10/25 12:47:00;;;;;;;;;;;19.20;99.90;;;;;;5050955;28;20378;-74
2022/10/25 12:49:43;;;;;;;;;;;19.20;99.90;;;;;;5051476;28;19956;-74
2022/10/25 12:52:28;;;;;;;;;;;19.20;99.90;;;;;;5043753;28;19913;-75
2022/10/25 12:55:03;;;;;;;;;;;19.20;99.90;;;;;;5041961;28;19967;-75
2022/10/25 12:57:44;;;;;;;;;;;19.10;99.90;;;;;;5035770;28;19913;-75
2022/10/25 13:00:14;;;;;;;;;;;19.10;99.90;;;;;;5030443;28;19944;-75
2022/10/25 13:02:52;;;;;;;;;;;19.10;99.90;;;;;;5031847;28;19909;-73
2022/10/25 13:05:28;;;;;;;;;;;19.10;99.90;;;;;;5041353;28;19913;-74
2022/10/25 13:07:57;;;;;;;;;;;19.10;99.90;;;;;;5049571;28;20597;-74
2022/10/25 13:10:23;;;;;;;;;;;19.10;99.90;;;;;;5052398;28;19918;-73
2022/10/25 13:13:04;;;;;;;;;;;19.10;99.90;;;;;;5050895;28;19909;-74
2022/10/25 13:15:43;;;;;;;;;;;19.10;99.90;;;;;;5052301;28;19913;-74
2022/10/25 13:18:30;;;;;;;;;;;19.10;99.90;;;;;;5038104;28;19917;-75
2022/10/25 13:20:57;;;;;;;;;;;19.10;99.90;;;;;;5018401;28;20019;-75
2022/10/25 13:23:41;;;;;;;;;;;19.10;99.90;;;;;;5036018;28;19920;-75
2022/10/25 13:26:10;;;;;;;;;;;19.00;99.90;;;;;;5036209;28;20259;-74
2022/10/25 13:28:44;;;;;;;;;;;18.90;99.90;;;;;;5035906;28;20134;-73
2022/10/25 13:31:41;;;;;;;;;;;18.80;99.90;;;;;;5052277;28;19909;-75
2022/10/25 13:34:08;;;;;;;;;;;18.80;99.90;;;;;;5033671;28;19913;-74
2022/10/25 13:36:46;;;;;;;;;;;18.70;99.90;;;;;;5036263;28;20371;-75
2022/10/25 13:39:22;;;;;;;;;;;18.80;99.90;;;;;;5050014;28;19952;-73
2022/10/25 13:41:49;;;;;;;;;;;18.80;99.90;;;;;;5048526;28;20022;-73
2022/10/25 13:44:20;;;;;;;;;;;18.70;99.90;;;;;;5032066;28;19909;-73
2022/10/25 13:46:47;;;;;;;;;;;18.70;99.90;;;;;;5037751;28;19920;-71
2022/10/25 13:49:20;;;;;;;;;;;18.60;99.90;;;;;;5032113;28;20348;-74
2022/10/25 13:51:47;;;;;;;;;;;18.60;99.90;;;;;;5032714;28;19917;-71
2022/10/25 13:54:13;;;;;;;;;;;18.50;99.90;;;;;;5039192;28;19920;-74
2022/10/25 13:56:50;;;;;;;;;;;18.40;99.90;;;;;;5049933;28;19921;-71
2022/10/25 13:59:36;;;;;;;;;;;18.40;99.90;;;;;;5038651;28;20034;-73
2022/10/25 14:02:17;;;;;;;;;;;18.30;99.90;;;;;;5050730;28;19912;-75
2022/10/25 14:04:44;;;;;;;;;;;18.20;99.90;;;;;;5052234;28;20267;-73
2022/10/25 14:07:31;;;;;;;;;;;18.30;99.90;;;;;;5045526;28;19921;-73
2022/10/25 14:09:58;;;;;;;;;;;18.30;99.90;;;;;;5021127;28;19910;-73
2022/10/25 14:12:25;;;;;;;;;;;18.30;99.90;;;;;;5034601;28;19913;-73
2022/10/25 14:14:52;;;;;;;;;;;18.30;99.90;;;;;;5047424;28;19917;-73
2022/10/25 14:17:37;;;;;;;;;;;18.30;99.90;;;;;;5052799;28;19999;-73
2022/10/25 14:20:08;;;;;;;;;;;18.30;99.90;;;;;;5038607;28;20398;-73
2022/10/25 14:22:49;;;;;;;;;;;18.30;99.90;;;;;;5046302;28;19970;-72
2022/10/25 14:25:36;;;;;;;;;;;18.30;99.90;;;;;;5045413;28;19974;-74
2022/10/25 14:28:12;;;;;;;;;;;18.30;99.90;;;;;;5035938;28;19929;-75
2022/10/25 14:30:41;;;;;;;;;;;18.20;99.90;;;;;;5035620;28;20364;-73
2022/10/25 14:33:20;;;;;;;;;;;18.20;99.90;;;;;;5043571;28;20210;-73
2022/10/25 14:35:48;;;;;;;;;;;18.20;99.90;;;;;;5035050;28;20326;-73